sensor_id;sensor_type;location;lat;lon;timestamp;P1;durP1;ratioP1;P2;durP2;ratioP2
7263;SDS011;3673;52.480;13.348;2023-04-06T00:00:32;6.57;;;4.30;;
7263;SDS011;3673;52.480;13.348;2023-04-06T00:02:59;6.40;;;4.05;;
7263;SDS011;3673;52.480;13.348;2023-04-06T00:05:28;10.43;;;4.78;;
7263;SDS011;3673;52.480;13.348;2023-04-06T00:07:55;6.00;;;4.10;;
7263;SDS011;3673;52.480;13.348;2023-04-06T00:10:23;5.70;;;4.45;;
7263;SDS011;3673;52.480;13.348;2023-04-06T00:12:51;7.32;;;4.45;;
7263;SDS011;3673;52.480;13.348;2023-04-06T00:15:18;8.02;;;4.50;;
7263;SDS011;3673;52.480;13.348;2023-04-06T00:17:45;7.38;;;4.88;;
7263;SDS011;3673;52.480;13.348;2023-04-06T00:20:12;6.95;;;4.25;;
7263;SDS011;3673;52.480;13.348;2023-04-06T00:22:40;7.22;;;5.18;;
7263;SDS011;3673;52.480;13.348;2023-04-06T00:25:07;9.40;;;5.15;;
7263;SDS011;3673;52.480;13.348;2023-04-06T00:27:36;9.05;;;4.72;;
7263;SDS011;3673;52.480;13.348;2023-04-06T00:30:03;7.82;;;4.45;;
7263;SDS011;3673;52.480;13.348;2023-04-06T00:32:31;7.05;;;4.75;;
7263;SDS011;3673;52.480;13.348;2023-04-06T00:34:58;7.50;;;4.55;;
7263;SDS011;3673;52.480;13.348;2023-04-06T00:37:25;6.13;;;4.78;;
7263;SDS011;3673;52.480;13.348;2023-04-06T00:39:53;6.90;;;4.43;;
7263;SDS011;3673;52.480;13.348;2023-04-06T00:42:20;9.32;;;5.25;;
7263;SDS011;3673;52.480;13.348;2023-04-06T00:44:51;6.97;;;4.35;;
7263;SDS011;3673;52.480;13.348;2023-04-06T00:47:18;8.52;;;4.75;;
7263;SDS011;3673;52.480;13.348;2023-04-06T00:49:45;8.93;;;4.90;;
7263;SDS011;3673;52.480;13.348;2023-04-06T00:52:12;7.93;;;4.53;;
7263;SDS011;3673;52.480;13.348;2023-04-06T00:54:39;8.10;;;4.60;;
7263;SDS011;3673;52.480;13.348;2023-04-06T00:57:08;9.07;;;4.72;;
7263;SDS011;3673;52.480;13.348;2023-04-06T00:59:35;8.77;;;4.60;;
7263;SDS011;3673;52.480;13.348;2023-04-06T01:02:02;6.38;;;4.47;;
7263;SDS011;3673;52.480;13.348;2023-04-06T01:04:29;7.25;;;4.43;;
7263;SDS011;3673;52.480;13.348;2023-04-06T01:06:57;6.35;;;4.47;;
7263;SDS011;3673;52.480;13.348;2023-04-06T01:09:24;8.57;;;4.93;;
7263;SDS011;3673;52.480;13.348;2023-04-06T01:11:51;14.07;;;4.70;;
7263;SDS011;3673;52.480;13.348;2023-04-06T01:14:19;8.20;;;4.82;;
7263;SDS011;3673;52.480;13.348;2023-04-06T01:16:46;8.30;;;4.80;;
7263;SDS011;3673;52.480;13.348;2023-04-06T01:19:13;6.65;;;4.40;;
7263;SDS011;3673;52.480;13.348;2023-04-06T01:21:40;9.30;;;4.68;;
7263;SDS011;3673;52.480;13.348;2023-04-06T01:24:09;8.48;;;5.07;;
7263;SDS011;3673;52.480;13.348;2023-04-06T01:26:36;9.20;;;5.00;;
7263;SDS011;3673;52.480;13.348;2023-04-06T01:29:04;7.97;;;5.13;;
7263;SDS011;3673;52.480;13.348;2023-04-06T01:31:31;10.52;;;7.05;;
7263;SDS011;3673;52.480;13.348;2023-04-06T01:33:58;9.93;;;6.13;;
7263;SDS011;3673;52.480;13.348;2023-04-06T01:36:25;11.00;;;6.82;;
7263;SDS011;3673;52.480;13.348;2023-04-06T01:38:52;10.77;;;6.97;;
7263;SDS011;3673;52.480;13.348;2023-04-06T01:41:20;9.75;;;6.03;;
7263;SDS011;3673;52.480;13.348;2023-04-06T01:43:47;6.40;;;4.10;;
7263;SDS011;3673;52.480;13.348;2023-04-06T01:46:14;7.60;;;4.32;;
7263;SDS011;3673;52.480;13.348;2023-04-06T01:48:41;8.48;;;5.10;;
7263;SDS011;3673;52.480;13.348;2023-04-06T01:51:08;8.48;;;4.70;;
7263;SDS011;3673;52.480;13.348;2023-04-06T01:53:35;7.60;;;4.90;;
7263;SDS011;3673;52.480;13.348;2023-04-06T01:56:02;9.90;;;5.10;;
7263;SDS011;3673;52.480;13.348;2023-04-06T01:58:31;6.75;;;4.65;;
7263;SDS011;3673;52.480;13.348;2023-04-06T02:00:58;7.35;;;4.50;;
7263;SDS011;3673;52.480;13.348;2023-04-06T02:03:25;9.18;;;4.55;;
7263;SDS011;3673;52.480;13.348;2023-04-06T02:05:52;7.38;;;5.13;;
7263;SDS011;3673;52.480;13.348;2023-04-06T02:08:19;11.45;;;5.07;;
7263;SDS011;3673;52.480;13.348;2023-04-06T02:10:45;8.05;;;4.82;;
7263;SDS011;3673;52.480;13.348;2023-04-06T02:13:12;7.68;;;4.70;;
7263;SDS011;3673;52.480;13.348;2023-04-06T02:15:40;7.05;;;4.53;;
7263;SDS011;3673;52.480;13.348;2023-04-06T02:18:07;7.32;;;4.95;;
7263;SDS011;3673;52.480;13.348;2023-04-06T02:20:34;7.55;;;5.40;;
7263;SDS011;3673;52.480;13.348;2023-04-06T02:23:01;6.20;;;4.55;;
7263;SDS011;3673;52.480;13.348;2023-04-06T02:25:28;7.28;;;5.05;;
7263;SDS011;3673;52.480;13.348;2023-04-06T02:27:55;8.18;;;5.22;;
7263;SDS011;3673;52.480;13.348;2023-04-06T02:30:22;9.82;;;5.13;;
7263;SDS011;3673;52.480;13.348;2023-04-06T02:32:50;8.82;;;4.72;;
7263;SDS011;3673;52.480;13.348;2023-04-06T02:35:17;11.68;;;5.30;;
7263;SDS011;3673;52.480;13.348;2023-04-06T02:37:44;8.15;;;5.15;;
7263;SDS011;3673;52.480;13.348;2023-04-06T02:40:10;9.73;;;5.25;;
7263;SDS011;3673;52.480;13.348;2023-04-06T02:42:37;10.55;;;5.35;;
7263;SDS011;3673;52.480;13.348;2023-04-06T02:45:05;7.40;;;5.10;;
7263;SDS011;3673;52.480;13.348;2023-04-06T02:47:33;9.02;;;5.45;;
7263;SDS011;3673;52.480;13.348;2023-04-06T02:50:01;10.13;;;5.95;;
7263;SDS011;3673;52.480;13.348;2023-04-06T02:52:28;7.47;;;5.43;;
7263;SDS011;3673;52.480;13.348;2023-04-06T02:54:55;9.07;;;4.80;;
7263;SDS011;3673;52.480;13.348;2023-04-06T02:57:22;7.40;;;5.25;;
7263;SDS011;3673;52.480;13.348;2023-04-06T02:59:49;11.10;;;4.97;;
7263;SDS011;3673;52.480;13.348;2023-04-06T03:02:16;10.38;;;5.55;;
7263;SDS011;3673;52.480;13.348;2023-04-06T03:04:44;6.47;;;5.18;;
7263;SDS011;3673;52.480;13.348;2023-04-06T03:07:12;11.68;;;6.38;;
7263;SDS011;3673;52.480;13.348;2023-04-06T03:09:39;7.32;;;5.75;;
7263;SDS011;3673;52.480;13.348;2023-04-06T03:12:06;12.45;;;6.10;;
7263;SDS011;3673;52.480;13.348;2023-04-06T03:14:33;12.40;;;7.00;;
7263;SDS011;3673;52.480;13.348;2023-04-06T03:17:00;13.02;;;7.53;;
7263;SDS011;3673;52.480;13.348;2023-04-06T03:19:27;14.52;;;7.90;;
7263;SDS011;3673;52.480;13.348;2023-04-06T03:21:54;11.55;;;6.85;;
7263;SDS011;3673;52.480;13.348;2023-04-06T03:24:22;8.57;;;5.55;;
7263;SDS011;3673;52.480;13.348;2023-04-06T03:26:49;7.57;;;5.65;;
7263;SDS011;3673;52.480;13.348;2023-04-06T03:29:15;9.10;;;5.97;;
7263;SDS011;3673;52.480;13.348;2023-04-06T03:31:42;11.68;;;6.50;;
7263;SDS011;3673;52.480;13.348;2023-04-06T03:34:09;9.20;;;5.80;;
7263;SDS011;3673;52.480;13.348;2023-04-06T03:36:36;11.63;;;5.32;;
7263;SDS011;3673;52.480;13.348;2023-04-06T03:39:03;9.07;;;5.68;;
7263;SDS011;3673;52.480;13.348;2023-04-06T03:41:31;9.90;;;5.78;;
7263;SDS011;3673;52.480;13.348;2023-04-06T03:43:58;11.48;;;5.10;;
7263;SDS011;3673;52.480;13.348;2023-04-06T03:46:25;11.25;;;5.90;;
7263;SDS011;3673;52.480;13.348;2023-04-06T03:48:52;11.20;;;6.05;;
7263;SDS011;3673;52.480;13.348;2023-04-06T03:51:19;10.88;;;5.65;;
7263;SDS011;3673;52.480;13.348;2023-04-06T03:53:45;8.75;;;6.40;;
7263;SDS011;3673;52.480;13.348;2023-04-06T03:56:12;9.55;;;5.80;;
7263;SDS011;3673;52.480;13.348;2023-04-06T03:58:40;12.57;;;6.53;;
7263;SDS011;3673;52.480;13.348;2023-04-06T04:01:09;12.02;;;6.05;;
7263;SDS011;3673;52.480;13.348;2023-04-06T04:03:36;13.35;;;5.85;;
7263;SDS011;3673;52.480;13.348;2023-04-06T04:06:03;11.75;;;6.13;;
7263;SDS011;3673;52.480;13.348;2023-04-06T04:08:30;9.95;;;7.20;;
7263;SDS011;3673;52.480;13.348;2023-04-06T04:10:57;10.60;;;6.50;;
7263;SDS011;3673;52.480;13.348;2023-04-06T04:13:24;8.90;;;6.28;;
7263;SDS011;3673;52.480;13.348;2023-04-06T04:15:52;11.65;;;7.00;;
7263;SDS011;3673;52.480;13.348;2023-04-06T04:18:19;14.57;;;6.53;;
7263;SDS011;3673;52.480;13.348;2023-04-06T04:20:46;8.02;;;6.03;;
7263;SDS011;3673;52.480;13.348;2023-04-06T04:23:12;14.15;;;8.15;;
7263;SDS011;3673;52.480;13.348;2023-04-06T04:25:40;14.15;;;7.07;;
7263;SDS011;3673;52.480;13.348;2023-04-06T04:28:07;11.75;;;6.97;;
7263;SDS011;3673;52.480;13.348;2023-04-06T04:30:33;12.18;;;7.30;;
7263;SDS011;3673;52.480;13.348;2023-04-06T04:33:02;12.52;;;7.43;;
7263;SDS011;3673;52.480;13.348;2023-04-06T04:35:29;12.40;;;7.15;;
7263;SDS011;3673;52.480;13.348;2023-04-06T04:37:56;11.68;;;7.93;;
7263;SDS011;3673;52.480;13.348;2023-04-06T04:40:22;12.50;;;8.13;;
7263;SDS011;3673;52.480;13.348;2023-04-06T04:42:49;16.52;;;9.57;;
7263;SDS011;3673;52.480;13.348;2023-04-06T04:45:16;12.13;;;8.30;;
7263;SDS011;3673;52.480;13.348;2023-04-06T04:47:43;12.98;;;9.98;;
7263;SDS011;3673;52.480;13.348;2023-04-06T04:50:12;20.70;;;10.25;;
7263;SDS011;3673;52.480;13.348;2023-04-06T04:52:38;17.27;;;9.70;;
7263;SDS011;3673;52.480;13.348;2023-04-06T04:55:05;22.90;;;9.07;;
7263;SDS011;3673;52.480;13.348;2023-04-06T04:57:33;10.63;;;8.25;;
7263;SDS011;3673;52.480;13.348;2023-04-06T05:00:00;12.88;;;8.73;;
7263;SDS011;3673;52.480;13.348;2023-04-06T05:02:27;13.70;;;10.45;;
7263;SDS011;3673;52.480;13.348;2023-04-06T05:04:54;15.30;;;10.13;;
7263;SDS011;3673;52.480;13.348;2023-04-06T05:07:22;11.32;;;8.85;;
7263;SDS011;3673;52.480;13.348;2023-04-06T05:09:49;14.35;;;9.75;;
7263;SDS011;3673;52.480;13.348;2023-04-06T05:12:16;16.27;;;9.82;;
7263;SDS011;3673;52.480;13.348;2023-04-06T05:14:44;19.30;;;9.35;;
7263;SDS011;3673;52.480;13.348;2023-04-06T05:17:11;15.27;;;10.88;;
7263;SDS011;3673;52.480;13.348;2023-04-06T05:19:38;16.27;;;9.32;;
7263;SDS011;3673;52.480;13.348;2023-04-06T05:22:05;15.02;;;9.38;;
7263;SDS011;3673;52.480;13.348;2023-04-06T05:24:33;15.63;;;9.43;;
7263;SDS011;3673;52.480;13.348;2023-04-06T05:27:00;11.07;;;8.98;;
7263;SDS011;3673;52.480;13.348;2023-04-06T05:29:27;21.00;;;10.02;;
7263;SDS011;3673;52.480;13.348;2023-04-06T05:31:55;16.98;;;10.10;;
7263;SDS011;3673;52.480;13.348;2023-04-06T05:34:22;18.85;;;9.82;;
7263;SDS011;3673;52.480;13.348;2023-04-06T05:36:49;19.38;;;9.50;;
7263;SDS011;3673;52.480;13.348;2023-04-06T05:39:15;20.20;;;10.15;;
7263;SDS011;3673;52.480;13.348;2023-04-06T05:41:44;20.20;;;9.73;;
7263;SDS011;3673;52.480;13.348;2023-04-06T05:44:11;23.15;;;13.15;;
7263;SDS011;3673;52.480;13.348;2023-04-06T05:46:38;16.30;;;10.82;;
7263;SDS011;3673;52.480;13.348;2023-04-06T05:49:05;19.75;;;9.95;;
7263;SDS011;3673;52.480;13.348;2023-04-06T05:51:31;12.88;;;9.40;;
7263;SDS011;3673;52.480;13.348;2023-04-06T05:53:58;12.35;;;8.98;;
7263;SDS011;3673;52.480;13.348;2023-04-06T05:56:25;13.88;;;10.07;;
7263;SDS011;3673;52.480;13.348;2023-04-06T05:58:53;16.42;;;9.32;;
7263;SDS011;3673;52.480;13.348;2023-04-06T06:01:20;17.67;;;8.95;;
7263;SDS011;3673;52.480;13.348;2023-04-06T06:03:47;16.63;;;8.65;;
7263;SDS011;3673;52.480;13.348;2023-04-06T06:06:14;11.85;;;8.65;;
7263;SDS011;3673;52.480;13.348;2023-04-06T06:08:41;12.38;;;8.60;;
7263;SDS011;3673;52.480;13.348;2023-04-06T06:11:07;14.23;;;8.52;;
7263;SDS011;3673;52.480;13.348;2023-04-06T06:13:34;12.88;;;8.35;;
7263;SDS011;3673;52.480;13.348;2023-04-06T06:16:03;10.75;;;8.27;;
7263;SDS011;3673;52.480;13.348;2023-04-06T06:18:30;10.18;;;7.57;;
7263;SDS011;3673;52.480;13.348;2023-04-06T06:20:57;12.65;;;7.63;;
7263;SDS011;3673;52.480;13.348;2023-04-06T06:23:25;10.82;;;7.07;;
7263;SDS011;3673;52.480;13.348;2023-04-06T06:25:52;11.15;;;7.25;;
7263;SDS011;3673;52.480;13.348;2023-04-06T06:28:19;13.25;;;7.13;;
7263;SDS011;3673;52.480;13.348;2023-04-06T06:30:45;15.68;;;7.80;;
7263;SDS011;3673;52.480;13.348;2023-04-06T06:33:14;10.52;;;7.32;;
7263;SDS011;3673;52.480;13.348;2023-04-06T06:35:40;11.20;;;6.47;;
7263;SDS011;3673;52.480;13.348;2023-04-06T06:38:07;12.02;;;6.85;;
7263;SDS011;3673;52.480;13.348;2023-04-06T06:40:34;15.57;;;6.97;;
7263;SDS011;3673;52.480;13.348;2023-04-06T06:43:01;12.95;;;7.43;;
7263;SDS011;3673;52.480;13.348;2023-04-06T06:45:28;16.90;;;8.93;;
7263;SDS011;3673;52.480;13.348;2023-04-06T06:47:55;14.65;;;7.53;;
7263;SDS011;3673;52.480;13.348;2023-04-06T06:50:24;9.90;;;6.43;;
7263;SDS011;3673;52.480;13.348;2023-04-06T06:52:50;12.00;;;6.57;;
7263;SDS011;3673;52.480;13.348;2023-04-06T06:55:17;15.48;;;7.07;;
7263;SDS011;3673;52.480;13.348;2023-04-06T06:57:45;13.40;;;6.88;;
7263;SDS011;3673;52.480;13.348;2023-04-06T07:00:12;10.23;;;6.85;;
7263;SDS011;3673;52.480;13.348;2023-04-06T07:02:40;11.07;;;7.03;;
7263;SDS011;3673;52.480;13.348;2023-04-06T07:05:07;9.05;;;6.32;;
7263;SDS011;3673;52.480;13.348;2023-04-06T07:07:36;14.55;;;6.63;;
7263;SDS011;3673;52.480;13.348;2023-04-06T07:10:03;9.85;;;6.00;;
7263;SDS011;3673;52.480;13.348;2023-04-06T07:12:31;7.72;;;5.53;;
7263;SDS011;3673;52.480;13.348;2023-04-06T07:14:58;12.85;;;5.85;;
7263;SDS011;3673;52.480;13.348;2023-04-06T07:17:25;10.95;;;5.75;;
7263;SDS011;3673;52.480;13.348;2023-04-06T07:19:52;9.82;;;6.13;;
7263;SDS011;3673;52.480;13.348;2023-04-06T07:22:19;8.25;;;6.00;;
7263;SDS011;3673;52.480;13.348;2023-04-06T07:24:47;15.50;;;6.50;;
7263;SDS011;3673;52.480;13.348;2023-04-06T07:27:14;11.80;;;6.18;;
7263;SDS011;3673;52.480;13.348;2023-04-06T07:29:41;8.77;;;5.60;;
7263;SDS011;3673;52.480;13.348;2023-04-06T07:32:08;8.90;;;5.60;;
7263;SDS011;3673;52.480;13.348;2023-04-06T07:34:35;8.55;;;5.78;;
7263;SDS011;3673;52.480;13.348;2023-04-06T07:37:01;10.68;;;5.22;;
7263;SDS011;3673;52.480;13.348;2023-04-06T07:39:28;12.07;;;5.03;;
7263;SDS011;3673;52.480;13.348;2023-04-06T07:41:57;7.43;;;4.95;;
7263;SDS011;3673;52.480;13.348;2023-04-06T07:44:24;6.55;;;4.93;;
7263;SDS011;3673;52.480;13.348;2023-04-06T07:46:50;7.35;;;4.50;;
7263;SDS011;3673;52.480;13.348;2023-04-06T07:49:17;7.22;;;4.50;;
7263;SDS011;3673;52.480;13.348;2023-04-06T07:51:45;6.82;;;5.20;;
7263;SDS011;3673;52.480;13.348;2023-04-06T07:54:12;15.40;;;9.40;;
7263;SDS011;3673;52.480;13.348;2023-04-06T07:56:39;8.60;;;5.30;;
7263;SDS011;3673;52.480;13.348;2023-04-06T07:59:08;5.63;;;4.07;;
7263;SDS011;3673;52.480;13.348;2023-04-06T08:01:36;9.23;;;4.25;;
7263;SDS011;3673;52.480;13.348;2023-04-06T08:04:03;10.25;;;4.43;;
7263;SDS011;3673;52.480;13.348;2023-04-06T08:06:30;9.07;;;4.63;;
7263;SDS011;3673;52.480;13.348;2023-04-06T08:08:57;9.48;;;5.72;;
7263;SDS011;3673;52.480;13.348;2023-04-06T08:11:24;11.63;;;5.90;;
7263;SDS011;3673;52.480;13.348;2023-04-06T08:13:51;8.75;;;5.18;;
7263;SDS011;3673;52.480;13.348;2023-04-06T08:16:19;11.27;;;6.00;;
7263;SDS011;3673;52.480;13.348;2023-04-06T08:18:46;9.30;;;4.03;;
7263;SDS011;3673;52.480;13.348;2023-04-06T08:21:13;6.32;;;4.10;;
7263;SDS011;3673;52.480;13.348;2023-04-06T08:23:40;5.60;;;3.58;;
7263;SDS011;3673;52.480;13.348;2023-04-06T08:26:07;5.32;;;3.97;;
7263;SDS011;3673;52.480;13.348;2023-04-06T08:28:34;9.93;;;4.00;;
7263;SDS011;3673;52.480;13.348;2023-04-06T08:31:03;5.57;;;3.20;;
7263;SDS011;3673;52.480;13.348;2023-04-06T08:33:32;7.30;;;3.83;;
7263;SDS011;3673;52.480;13.348;2023-04-06T08:36:06;4.78;;;3.28;;
7263;SDS011;3673;52.480;13.348;2023-04-06T08:38:35;6.78;;;4.00;;
7263;SDS011;3673;52.480;13.348;2023-04-06T08:41:06;4.65;;;3.53;;
7263;SDS011;3673;52.480;13.348;2023-04-06T08:43:36;8.27;;;3.38;;
7263;SDS011;3673;52.480;13.348;2023-04-06T08:46:09;5.22;;;3.08;;
7263;SDS011;3673;52.480;13.348;2023-04-06T08:48:39;3.97;;;2.85;;
7263;SDS011;3673;52.480;13.348;2023-04-06T08:51:08;11.13;;;7.15;;
7263;SDS011;3673;52.480;13.348;2023-04-06T08:53:36;10.80;;;5.85;;
7263;SDS011;3673;52.480;13.348;2023-04-06T08:56:04;5.55;;;4.20;;
7263;SDS011;3673;52.480;13.348;2023-04-06T08:58:33;17.98;;;11.27;;
7263;SDS011;3673;52.480;13.348;2023-04-06T09:01:03;8.25;;;3.50;;
7263;SDS011;3673;52.480;13.348;2023-04-06T09:03:36;4.30;;;2.75;;
7263;SDS011;3673;52.480;13.348;2023-04-06T09:06:06;4.55;;;2.53;;
7263;SDS011;3673;52.480;13.348;2023-04-06T09:08:34;4.72;;;2.47;;
7263;SDS011;3673;52.480;13.348;2023-04-06T09:11:02;3.03;;;2.10;;
7263;SDS011;3673;52.480;13.348;2023-04-06T09:13:29;4.30;;;2.50;;
7263;SDS011;3673;52.480;13.348;2023-04-06T09:16:00;3.28;;;2.55;;
7263;SDS011;3673;52.480;13.348;2023-04-06T09:18:29;3.22;;;2.35;;
7263;SDS011;3673;52.480;13.348;2023-04-06T09:20:58;5.25;;;2.40;;
7263;SDS011;3673;52.480;13.348;2023-04-06T09:23:27;5.32;;;1.90;;
7263;SDS011;3673;52.480;13.348;2023-04-06T09:26:04;3.72;;;2.20;;
7263;SDS011;3673;52.480;13.348;2023-04-06T09:28:43;2.85;;;2.55;;
7263;SDS011;3673;52.480;13.348;2023-04-06T09:31:11;3.60;;;2.40;;
7263;SDS011;3673;52.480;13.348;2023-04-06T09:33:40;4.05;;;2.38;;
7263;SDS011;3673;52.480;13.348;2023-04-06T09:36:12;5.82;;;3.00;;
7263;SDS011;3673;52.480;13.348;2023-04-06T09:38:50;3.03;;;2.35;;
7263;SDS011;3673;52.480;13.348;2023-04-06T09:41:20;6.53;;;2.97;;
7263;SDS011;3673;52.480;13.348;2023-04-06T09:43:49;7.38;;;3.00;;
7263;SDS011;3673;52.480;13.348;2023-04-06T09:46:17;6.75;;;6.05;;
7263;SDS011;3673;52.480;13.348;2023-04-06T09:48:46;6.95;;;4.60;;
7263;SDS011;3673;52.480;13.348;2023-04-06T09:51:16;4.15;;;3.05;;
7263;SDS011;3673;52.480;13.348;2023-04-06T09:53:46;9.10;;;2.88;;
7263;SDS011;3673;52.480;13.348;2023-04-06T09:56:19;5.75;;;2.63;;
7263;SDS011;3673;52.480;13.348;2023-04-06T09:58:54;3.17;;;2.15;;
7263;SDS011;3673;52.480;13.348;2023-04-06T10:01:28;3.33;;;2.15;;
7263;SDS011;3673;52.480;13.348;2023-04-06T10:04:00;2.75;;;1.95;;
7263;SDS011;3673;52.480;13.348;2023-04-06T10:06:40;3.72;;;2.58;;
7263;SDS011;3673;52.480;13.348;2023-04-06T10:09:07;5.22;;;2.10;;
7263;SDS011;3673;52.480;13.348;2023-04-06T10:11:36;3.55;;;2.47;;
7263;SDS011;3673;52.480;13.348;2023-04-06T10:14:03;2.50;;;2.20;;
7263;SDS011;3673;52.480;13.348;2023-04-06T10:16:31;5.72;;;2.50;;
7263;SDS011;3673;52.480;13.348;2023-04-06T10:19:00;2.60;;;2.28;;
7263;SDS011;3673;52.480;13.348;2023-04-06T10:21:36;5.43;;;2.67;;
7263;SDS011;3673;52.480;13.348;2023-04-06T10:24:08;5.55;;;2.95;;
7263;SDS011;3673;52.480;13.348;2023-04-06T10:26:37;4.03;;;2.20;;
7263;SDS011;3673;52.480;13.348;2023-04-06T10:29:04;4.53;;;2.00;;
7263;SDS011;3673;52.480;13.348;2023-04-06T10:31:32;3.42;;;2.25;;
7263;SDS011;3673;52.480;13.348;2023-04-06T10:33:59;3.45;;;2.28;;
7263;SDS011;3673;52.480;13.348;2023-04-06T10:36:32;4.82;;;1.63;;
7263;SDS011;3673;52.480;13.348;2023-04-06T10:39:01;4.13;;;1.92;;
7263;SDS011;3673;52.480;13.348;2023-04-06T10:41:34;3.75;;;2.33;;
7263;SDS011;3673;52.480;13.348;2023-04-06T10:44:06;3.92;;;1.95;;
7263;SDS011;3673;52.480;13.348;2023-04-06T10:46:33;3.15;;;2.13;;
7263;SDS011;3673;52.480;13.348;2023-04-06T10:49:09;3.10;;;2.42;;
7263;SDS011;3673;52.480;13.348;2023-04-06T10:51:38;3.85;;;2.60;;
7263;SDS011;3673;52.480;13.348;2023-04-06T10:54:06;3.33;;;2.13;;
7263;SDS011;3673;52.480;13.348;2023-04-06T10:56:36;4.05;;;2.35;;
7263;SDS011;3673;52.480;13.348;2023-04-06T10:59:05;5.05;;;3.20;;
7263;SDS011;3673;52.480;13.348;2023-04-06T11:01:32;4.00;;;2.40;;
7263;SDS011;3673;52.480;13.348;2023-04-06T11:04:00;3.20;;;2.00;;
7263;SDS011;3673;52.480;13.348;2023-04-06T11:06:28;5.30;;;2.17;;
7263;SDS011;3673;52.480;13.348;2023-04-06T11:08:58;5.18;;;2.20;;
7263;SDS011;3673;52.480;13.348;2023-04-06T11:11:25;4.57;;;2.20;;
7263;SDS011;3673;52.480;13.348;2023-04-06T11:13:55;4.40;;;2.40;;
7263;SDS011;3673;52.480;13.348;2023-04-06T11:16:23;2.72;;;2.22;;
7263;SDS011;3673;52.480;13.348;2023-04-06T11:18:53;2.60;;;1.90;;
7263;SDS011;3673;52.480;13.348;2023-04-06T11:21:31;3.33;;;2.00;;
7263;SDS011;3673;52.480;13.348;2023-04-06T11:24:10;4.43;;;2.47;;
7263;SDS011;3673;52.480;13.348;2023-04-06T11:26:39;5.32;;;2.45;;
7263;SDS011;3673;52.480;13.348;2023-04-06T11:29:11;4.82;;;2.75;;
7263;SDS011;3673;52.480;13.348;2023-04-06T11:31:39;2.65;;;2.25;;
7263;SDS011;3673;52.480;13.348;2023-04-06T11:34:11;3.70;;;2.47;;
7263;SDS011;3673;52.480;13.348;2023-04-06T11:36:42;4.38;;;2.38;;
7263;SDS011;3673;52.480;13.348;2023-04-06T11:39:11;4.32;;;2.08;;
7263;SDS011;3673;52.480;13.348;2023-04-06T11:41:38;3.95;;;2.33;;
7263;SDS011;3673;52.480;13.348;2023-04-06T11:44:05;2.30;;;2.10;;
7263;SDS011;3673;52.480;13.348;2023-04-06T11:46:34;3.25;;;2.25;;
7263;SDS011;3673;52.480;13.348;2023-04-06T11:49:01;5.50;;;2.88;;
7263;SDS011;3673;52.480;13.348;2023-04-06T11:51:28;4.40;;;3.13;;
7263;SDS011;3673;52.480;13.348;2023-04-06T11:53:55;4.07;;;2.78;;
7263;SDS011;3673;52.480;13.348;2023-04-06T11:56:23;2.92;;;2.20;;
7263;SDS011;3673;52.480;13.348;2023-04-06T11:58:52;8.77;;;3.10;;
7263;SDS011;3673;52.480;13.348;2023-04-06T12:01:21;3.60;;;2.70;;
7263;SDS011;3673;52.480;13.348;2023-04-06T12:03:50;2.97;;;2.45;;
7263;SDS011;3673;52.480;13.348;2023-04-06T12:06:18;2.65;;;2.40;;
7263;SDS011;3673;52.480;13.348;2023-04-06T12:08:45;7.25;;;5.25;;
7263;SDS011;3673;52.480;13.348;2023-04-06T12:11:12;4.22;;;3.15;;
7263;SDS011;3673;52.480;13.348;2023-04-06T12:13:39;3.17;;;2.65;;
7263;SDS011;3673;52.480;13.348;2023-04-06T12:16:06;4.55;;;2.30;;
7263;SDS011;3673;52.480;13.348;2023-04-06T12:18:32;3.10;;;2.60;;
7263;SDS011;3673;52.480;13.348;2023-04-06T12:21:01;3.40;;;3.08;;
7263;SDS011;3673;52.480;13.348;2023-04-06T12:23:28;11.98;;;9.80;;
7263;SDS011;3673;52.480;13.348;2023-04-06T12:25:55;4.40;;;2.95;;
7263;SDS011;3673;52.480;13.348;2023-04-06T12:28:22;4.18;;;3.28;;
7263;SDS011;3673;52.480;13.348;2023-04-06T12:30:51;3.80;;;2.67;;
7263;SDS011;3673;52.480;13.348;2023-04-06T12:33:20;4.97;;;2.83;;
7263;SDS011;3673;52.480;13.348;2023-04-06T12:35:47;4.18;;;3.70;;
7263;SDS011;3673;52.480;13.348;2023-04-06T12:38:15;4.00;;;3.67;;
7263;SDS011;3673;52.480;13.348;2023-04-06T12:40:42;3.55;;;2.63;;
7263;SDS011;3673;52.480;13.348;2023-04-06T12:43:09;7.50;;;5.68;;
7263;SDS011;3673;52.480;13.348;2023-04-06T12:45:35;7.22;;;5.40;;
7263;SDS011;3673;52.480;13.348;2023-04-06T12:48:03;5.07;;;3.55;;
7263;SDS011;3673;52.480;13.348;2023-04-06T12:50:30;4.80;;;4.30;;
7263;SDS011;3673;52.480;13.348;2023-04-06T12:52:57;3.85;;;3.20;;
7263;SDS011;3673;52.480;13.348;2023-04-06T12:55:25;3.95;;;3.15;;
7263;SDS011;3673;52.480;13.348;2023-04-06T12:57:55;5.55;;;2.78;;
7263;SDS011;3673;52.480;13.348;2023-04-06T13:00:23;5.13;;;3.30;;
7263;SDS011;3673;52.480;13.348;2023-04-06T13:02:50;3.78;;;2.97;;
7263;SDS011;3673;52.480;13.348;2023-04-06T13:05:17;5.57;;;2.95;;
7263;SDS011;3673;52.480;13.348;2023-04-06T13:07:44;8.70;;;7.18;;
7263;SDS011;3673;52.480;13.348;2023-04-06T13:10:12;3.90;;;3.13;;
7263;SDS011;3673;52.480;13.348;2023-04-06T13:12:40;4.10;;;2.97;;
7263;SDS011;3673;52.480;13.348;2023-04-06T13:15:08;3.45;;;2.97;;
7263;SDS011;3673;52.480;13.348;2023-04-06T13:17:35;3.55;;;3.25;;
7263;SDS011;3673;52.480;13.348;2023-04-06T13:20:02;5.05;;;3.38;;
7263;SDS011;3673;52.480;13.348;2023-04-06T13:22:31;3.38;;;2.90;;
7263;SDS011;3673;52.480;13.348;2023-04-06T13:24:58;5.50;;;3.25;;
7263;SDS011;3673;52.480;13.348;2023-04-06T13:27:25;4.80;;;3.20;;
7263;SDS011;3673;52.480;13.348;2023-04-06T13:29:53;3.53;;;3.20;;
7263;SDS011;3673;52.480;13.348;2023-04-06T13:32:22;6.18;;;3.80;;
7263;SDS011;3673;52.480;13.348;2023-04-06T13:34:49;4.28;;;3.03;;
7263;SDS011;3673;52.480;13.348;2023-04-06T13:37:18;3.90;;;2.83;;
7263;SDS011;3673;52.480;13.348;2023-04-06T13:39:45;4.75;;;3.05;;
7263;SDS011;3673;52.480;13.348;2023-04-06T13:42:12;3.65;;;3.22;;
7263;SDS011;3673;52.480;13.348;2023-04-06T13:44:39;2.97;;;2.67;;
7263;SDS011;3673;52.480;13.348;2023-04-06T13:47:07;4.18;;;3.47;;
7263;SDS011;3673;52.480;13.348;2023-04-06T13:49:34;4.85;;;3.13;;
7263;SDS011;3673;52.480;13.348;2023-04-06T13:52:02;4.43;;;3.25;;
7263;SDS011;3673;52.480;13.348;2023-04-06T13:54:29;6.00;;;4.10;;
7263;SDS011;3673;52.480;13.348;2023-04-06T13:56:56;4.38;;;3.25;;
7263;SDS011;3673;52.480;13.348;2023-04-06T13:59:23;4.93;;;3.35;;
7263;SDS011;3673;52.480;13.348;2023-04-06T14:01:50;4.65;;;3.47;;
7263;SDS011;3673;52.480;13.348;2023-04-06T14:04:18;3.58;;;3.05;;
7263;SDS011;3673;52.480;13.348;2023-04-06T14:06:45;5.13;;;3.17;;
7263;SDS011;3673;52.480;13.348;2023-04-06T14:09:12;3.88;;;2.85;;
7263;SDS011;3673;52.480;13.348;2023-04-06T14:11:39;3.45;;;2.63;;
7263;SDS011;3673;52.480;13.348;2023-04-06T14:14:06;8.18;;;4.43;;
7263;SDS011;3673;52.480;13.348;2023-04-06T14:16:33;4.50;;;3.40;;
7263;SDS011;3673;52.480;13.348;2023-04-06T14:19:00;6.57;;;3.25;;
7263;SDS011;3673;52.480;13.348;2023-04-06T14:21:29;5.60;;;3.30;;
7263;SDS011;3673;52.480;13.348;2023-04-06T14:23:56;6.10;;;4.18;;
7263;SDS011;3673;52.480;13.348;2023-04-06T14:26:23;4.55;;;3.20;;
7263;SDS011;3673;52.480;13.348;2023-04-06T14:28:53;6.03;;;3.70;;
7263;SDS011;3673;52.480;13.348;2023-04-06T14:31:20;4.30;;;3.22;;
7263;SDS011;3673;52.480;13.348;2023-04-06T14:33:47;6.35;;;3.55;;
7263;SDS011;3673;52.480;13.348;2023-04-06T14:36:15;6.13;;;3.85;;
7263;SDS011;3673;52.480;13.348;2023-04-06T14:38:44;4.47;;;3.92;;
7263;SDS011;3673;52.480;13.348;2023-04-06T14:41:14;5.70;;;3.10;;
7263;SDS011;3673;52.480;13.348;2023-04-06T14:43:43;4.05;;;3.30;;
7263;SDS011;3673;52.480;13.348;2023-04-06T14:46:10;5.85;;;3.50;;
7263;SDS011;3673;52.480;13.348;2023-04-06T14:48:37;4.22;;;3.10;;
7263;SDS011;3673;52.480;13.348;2023-04-06T14:51:05;4.72;;;2.67;;
7263;SDS011;3673;52.480;13.348;2023-04-06T14:53:32;4.63;;;3.30;;
7263;SDS011;3673;52.480;13.348;2023-04-06T14:56:01;8.18;;;3.97;;
7263;SDS011;3673;52.480;13.348;2023-04-06T14:58:27;5.68;;;3.55;;
7263;SDS011;3673;52.480;13.348;2023-04-06T15:00:55;4.57;;;3.33;;